createdAt,value
2018-07-31T00:00:46.776Z,99.99
2018-07-31T00:01:47.365Z,99.99
2018-07-31T00:05:08.931Z,99.99
2018-07-31T00:06:09.570Z,99.99
2018-07-31T00:07:10.207Z,99.99
2018-07-31T00:08:10.793Z,99.99
2018-07-31T00:09:11.372Z,99.99
2018-07-31T00:10:11.962Z,99.99
2018-07-31T00:11:12.547Z,99.99
2018-07-31T00:12:13.136Z,99.99
2018-07-31T00:13:13.724Z,99.99
2018-07-31T00:14:14.312Z,99.99
2018-07-31T00:15:14.900Z,99.99
2018-07-31T00:16:15.687Z,99.99
2018-07-31T00:17:16.323Z,99.99
2018-07-31T00:18:16.962Z,99.99
2018-07-31T00:19:17.550Z,99.99
2018-07-31T00:20:18.137Z,99.99
2018-07-31T00:21:18.724Z,99.99
2018-07-31T00:22:19.363Z,99.99
2018-07-31T00:23:19.946Z,99.99
2018-07-31T00:24:20.582Z,99.99
2018-07-31T00:29:49.423Z,99.99
2018-07-31T00:30:50.001Z,99.99
2018-07-31T00:35:37.477Z,99.99
2018-07-31T00:36:38.053Z,99.99
2018-07-31T00:37:38.839Z,99.99
2018-07-31T00:38:39.515Z,99.99
2018-07-31T00:39:40.296Z,99.99
2018-07-31T00:41:56.349Z,99.99
2018-07-31T00:42:56.981Z,99.99
2018-07-31T00:45:13.606Z,99.99
2018-07-31T00:46:14.192Z,99.99
2018-07-31T00:47:14.775Z,99.99
2018-07-31T00:48:15.365Z,99.99
2018-07-31T00:49:15.952Z,99.99
2018-07-31T00:50:16.592Z,99.99
2018-07-31T00:52:18.741Z,99.99
2018-07-31T00:53:19.323Z,99.99
2018-07-31T00:54:19.899Z,99.99
2018-07-31T00:55:20.531Z,99.99
2018-07-31T00:56:34.879Z,99.99
2018-07-31T00:57:35.466Z,99.99
2018-07-31T00:58:36.052Z,99.99
2018-07-31T00:59:36.643Z,99.99
2018-07-31T01:00:37.278Z,99.99
2018-07-31T01:01:37.920Z,99.99
2018-07-31T01:02:38.505Z,99.99
2018-07-31T01:03:39.093Z,99.99
2018-07-31T01:04:39.675Z,99.99
2018-07-31T01:05:40.261Z,99.99
2018-07-31T01:06:41.004Z,99.99
2018-07-31T01:07:41.588Z,99.99
2018-07-31T01:08:42.176Z,99.99
2018-07-31T01:09:42.765Z,99.99
2018-07-31T01:10:43.391Z,99.99
2018-07-31T01:11:44.029Z,99.99
2018-07-31T01:12:44.617Z,99.99
2018-07-31T01:13:45.208Z,99.99
2018-07-31T01:14:45.791Z,99.99
2018-07-31T01:15:46.380Z,99.99
2018-07-31T01:16:46.964Z,99.99
2018-07-31T01:17:47.547Z,99.99
2018-07-31T01:18:48.180Z,99.99
2018-07-31T01:19:48.767Z,99.99
2018-07-31T01:20:49.400Z,99.99
2018-07-31T01:21:49.981Z,99.99
2018-07-31T01:22:50.571Z,99.99
2018-07-31T01:23:51.210Z,99.99
2018-07-31T01:24:51.790Z,99.99
2018-07-31T01:25:52.425Z,99.99
2018-07-31T01:26:53.060Z,99.99
2018-07-31T01:27:53.663Z,99.99
2018-07-31T01:28:54.229Z,99.99
2018-07-31T01:29:54.825Z,99.99
2018-07-31T01:30:55.457Z,99.99
2018-07-31T01:31:56.044Z,99.99
2018-07-31T01:32:56.628Z,99.99
2018-07-31T01:33:57.217Z,99.99
2018-07-31T01:34:57.843Z,99.99
2018-07-31T01:35:58.633Z,99.99
2018-07-31T01:36:59.211Z,99.99
2018-07-31T01:37:59.802Z,99.99
2018-07-31T01:39:00.383Z,99.99
2018-07-31T01:41:02.541Z,99.99
2018-07-31T01:42:03.111Z,99.99
2018-07-31T01:43:03.697Z,99.99
2018-07-31T01:44:04.293Z,99.99
2018-07-31T01:45:04.869Z,99.99
2018-07-31T01:46:05.537Z,99.99
2018-07-31T01:47:06.089Z,99.99
2018-07-31T01:48:06.674Z,99.99
2018-07-31T01:49:07.314Z,99.99
2018-07-31T01:50:07.900Z,99.99
2018-07-31T01:51:08.490Z,99.99
2018-07-31T01:52:09.073Z,99.99
2018-07-31T01:53:09.651Z,99.99
2018-07-31T01:54:10.290Z,99.99
2018-07-31T01:55:10.878Z,99.99
2018-07-31T01:56:11.459Z,99.99
2018-07-31T01:57:12.100Z,99.99
2018-07-31T01:58:12.679Z,99.99
2018-07-31T01:59:13.268Z,99.99
2018-07-31T02:00:13.851Z,99.99
2018-07-31T02:01:14.434Z,99.99
2018-07-31T02:02:15.068Z,99.99
2018-07-31T02:03:15.655Z,99.99
2018-07-31T02:04:16.245Z,99.99
2018-07-31T02:05:16.831Z,99.99
2018-07-31T02:06:17.437Z,99.99
2018-07-31T02:07:18.001Z,99.99
2018-07-31T02:08:18.590Z,99.99
2018-07-31T02:09:19.174Z,99.99
2018-07-31T02:10:19.811Z,99.99
2018-07-31T02:11:20.397Z,99.99
2018-07-31T02:12:21.033Z,99.99
2018-07-31T02:13:21.615Z,99.99
2018-07-31T02:14:22.202Z,99.99
2018-07-31T02:15:22.789Z,99.99
2018-07-31T02:16:23.378Z,99.99
2018-07-31T02:17:24.015Z,99.99
2018-07-31T02:18:24.545Z,99.99
2018-07-31T02:19:25.225Z,99.99
2018-07-31T02:20:25.806Z,99.99
2018-07-31T02:21:26.392Z,99.99
2018-07-31T02:22:26.980Z,99.99
2018-07-31T02:23:27.563Z,99.99
2018-07-31T02:24:28.150Z,99.99
2018-07-31T02:25:28.737Z,99.99
2018-07-31T02:26:29.324Z,99.99
2018-07-31T02:27:29.911Z,99.99
2018-07-31T02:28:30.509Z,99.99
2018-07-31T02:29:31.135Z,99.99
2018-07-31T02:30:31.775Z,99.99
2018-07-31T02:31:32.354Z,99.99
2018-07-31T02:32:32.944Z,99.99
2018-07-31T02:33:33.574Z,99.99
2018-07-31T02:34:34.207Z,99.99
2018-07-31T02:35:34.787Z,99.99
2018-07-31T02:36:35.371Z,99.99
2018-07-31T02:37:35.959Z,99.99
2018-07-31T02:38:36.598Z,99.99
2018-07-31T02:39:37.226Z,99.99
2018-07-31T02:40:37.816Z,99.99
2018-07-31T02:41:38.399Z,99.99
2018-07-31T02:42:38.987Z,99.99
2018-07-31T02:43:39.566Z,99.99
2018-07-31T02:44:40.149Z,99.99
2018-07-31T02:45:40.732Z,99.99
2018-07-31T02:46:41.314Z,99.99
2018-07-31T02:47:42.096Z,99.99
2018-07-31T02:48:42.676Z,99.99
2018-07-31T02:49:43.262Z,99.99
2018-07-31T02:50:43.845Z,99.99
2018-07-31T02:51:44.482Z,99.99
2018-07-31T02:52:45.073Z,99.99
2018-07-31T02:53:45.648Z,99.99
2018-07-31T02:54:46.239Z,99.99
2018-07-31T02:55:46.878Z,99.99
2018-07-31T02:56:47.466Z,99.99
2018-07-31T02:58:49.631Z,99.99
2018-07-31T02:59:50.220Z,99.99
2018-07-31T03:00:50.807Z,99.99
2018-07-31T03:01:51.382Z,99.99
2018-07-31T03:02:51.967Z,99.99
2018-07-31T03:03:52.558Z,99.99
2018-07-31T03:04:53.142Z,99.99
2018-07-31T03:05:53.731Z,99.99
2018-07-31T03:06:54.316Z,99.99
2018-07-31T03:07:54.902Z,99.99
2018-07-31T03:08:55.539Z,99.99
2018-07-31T03:09:56.118Z,99.99
2018-07-31T03:10:56.707Z,99.99
2018-07-31T03:11:57.340Z,99.99
2018-07-31T03:12:57.967Z,99.99
2018-07-31T03:13:58.551Z,99.99
2018-07-31T03:14:59.139Z,99.99
2018-07-31T03:15:59.727Z,99.99
2018-07-31T03:17:00.312Z,99.99
2018-07-31T03:18:00.951Z,99.99
2018-07-31T03:19:01.537Z,99.99
2018-07-31T03:20:02.126Z,99.99
2018-07-31T03:21:02.723Z,99.99
2018-07-31T03:22:03.297Z,99.99
2018-07-31T03:24:05.458Z,99.99
2018-07-31T03:25:06.049Z,99.99
2018-07-31T03:26:06.636Z,99.99
2018-07-31T03:27:07.222Z,99.99
2018-07-31T03:28:07.826Z,99.99
2018-07-31T03:29:08.439Z,99.99
2018-07-31T03:30:09.075Z,99.99
2018-07-31T03:31:09.715Z,99.99
2018-07-31T03:32:10.305Z,99.99
2018-07-31T03:33:10.887Z,99.99
2018-07-31T03:34:11.481Z,99.99
2018-07-31T03:38:56.253Z,99.99
2018-07-31T03:41:12.254Z,99.99
2018-07-31T03:42:12.878Z,99.99
2018-07-31T03:43:13.461Z,99.99
2018-07-31T03:44:14.040Z,99.99
2018-07-31T03:45:14.620Z,99.99
2018-07-31T03:46:15.197Z,99.99
2018-07-31T03:47:15.823Z,99.99
2018-07-31T03:48:16.450Z,99.99
2018-07-31T03:49:17.025Z,99.99
2018-07-31T03:50:17.660Z,99.99
2018-07-31T03:51:18.238Z,99.99
2018-07-31T03:52:18.816Z,99.99
2018-07-31T03:53:19.395Z,99.99
2018-07-31T03:54:19.970Z,99.99
2018-07-31T03:55:20.551Z,99.99
2018-07-31T03:56:21.164Z,99.99
2018-07-31T03:57:21.713Z,99.99
2018-07-31T03:58:22.288Z,99.99
2018-07-31T03:59:22.874Z,99.99
2018-07-31T04:00:23.451Z,99.99
2018-07-31T04:01:24.033Z,99.99
2018-07-31T04:02:24.656Z,99.99
2018-07-31T04:03:25.234Z,99.99
2018-07-31T04:04:25.868Z,99.99
2018-07-31T04:05:26.533Z,99.99
2018-07-31T04:06:27.066Z,99.99
2018-07-31T04:07:27.650Z,99.99
2018-07-31T04:08:28.229Z,99.99
2018-07-31T04:09:28.853Z,99.99
2018-07-31T04:10:29.435Z,99.99
2018-07-31T04:11:30.018Z,99.99
2018-07-31T04:12:30.595Z,99.99
2018-07-31T04:13:31.180Z,99.99
2018-07-31T04:14:31.764Z,99.99
2018-07-31T04:15:32.345Z,99.99
2018-07-31T04:16:32.928Z,99.99
2018-07-31T04:17:33.506Z,99.99
2018-07-31T04:18:34.135Z,99.99
2018-07-31T04:19:34.716Z,99.99
2018-07-31T04:20:35.497Z,99.99
2018-07-31T04:21:36.132Z,99.99
2018-07-31T04:22:36.761Z,99.99
2018-07-31T04:23:37.344Z,99.99
2018-07-31T04:24:37.929Z,99.99
2018-07-31T04:25:38.501Z,99.99
2018-07-31T04:26:39.127Z,99.99
2018-07-31T04:27:39.758Z,99.99
2018-07-31T04:28:40.338Z,99.99
2018-07-31T04:29:40.919Z,99.99
2018-07-31T04:30:41.497Z,99.99
2018-07-31T04:31:42.078Z,99.99
2018-07-31T04:32:42.660Z,99.99
2018-07-31T04:33:43.285Z,99.99
2018-07-31T04:34:43.865Z,99.99
2018-07-31T04:35:44.541Z,99.99
2018-07-31T04:36:45.069Z,99.99
2018-07-31T04:37:45.705Z,99.99
2018-07-31T04:38:46.285Z,99.99
2018-07-31T04:39:46.910Z,99.99
2018-07-31T04:40:47.493Z,99.99
2018-07-31T04:41:48.125Z,99.99
2018-07-31T04:42:48.705Z,99.99
2018-07-31T04:43:49.287Z,99.99
2018-07-31T04:44:49.867Z,99.99
2018-07-31T04:45:50.449Z,99.99
2018-07-31T04:46:51.028Z,99.99
2018-07-31T04:47:51.605Z,99.99
2018-07-31T04:48:52.189Z,99.99
2018-07-31T04:49:52.823Z,99.99
2018-07-31T04:50:53.396Z,99.99
2018-07-31T04:51:53.988Z,99.99
2018-07-31T04:52:54.604Z,99.99
2018-07-31T04:53:55.190Z,99.99
2018-07-31T04:54:55.771Z,99.99
2018-07-31T04:55:56.355Z,99.99
2018-07-31T04:56:56.980Z,99.99
2018-07-31T04:57:57.608Z,99.99
2018-07-31T04:58:58.191Z,99.99
2018-07-31T04:59:58.823Z,99.99
2018-07-31T05:00:59.405Z,99.99
2018-07-31T05:01:59.979Z,99.99
2018-07-31T05:03:00.566Z,99.99
2018-07-31T05:04:01.138Z,99.99
2018-07-31T05:05:01.723Z,99.99
2018-07-31T05:06:02.357Z,99.99
2018-07-31T05:07:02.934Z,99.99
2018-07-31T05:08:03.516Z,99.99
2018-07-31T05:09:04.099Z,99.99
2018-07-31T05:10:04.721Z,99.99
2018-07-31T05:11:05.367Z,99.99
2018-07-31T05:12:05.883Z,99.99
2018-07-31T05:13:06.467Z,99.99
2018-07-31T05:14:07.094Z,99.99
2018-07-31T05:15:07.720Z,99.99
2018-07-31T05:16:08.307Z,99.99
2018-07-31T05:17:08.941Z,99.99
2018-07-31T05:18:09.571Z,99.99
2018-07-31T05:19:10.117Z,99.99
2018-07-31T05:20:10.711Z,99.99
2018-07-31T05:21:11.296Z,99.99
2018-07-31T05:22:11.886Z,99.99
2018-07-31T05:23:12.525Z,99.99
2018-07-31T05:24:13.112Z,99.99
2018-07-31T05:25:13.709Z,99.99
2018-07-31T05:26:14.326Z,99.99
2018-07-31T05:27:14.909Z,99.99
2018-07-31T05:28:15.496Z,99.99
2018-07-31T05:29:16.078Z,99.99
2018-07-31T05:30:21.718Z,99.99
2018-07-31T05:31:22.404Z,99.99
2018-07-31T05:32:23.053Z,99.99
2018-07-31T05:33:23.577Z,99.99
2018-07-31T05:34:24.160Z,99.99
2018-07-31T05:35:24.752Z,99.99
2018-07-31T05:36:25.384Z,99.99
2018-07-31T05:37:25.970Z,99.99
2018-07-31T05:38:26.559Z,99.99
2018-07-31T05:39:27.148Z,99.99
2018-07-31T05:40:27.724Z,99.99
2018-07-31T05:41:28.312Z,99.99
2018-07-31T05:42:28.899Z,99.99
2018-07-31T05:43:29.487Z,99.99
2018-07-31T05:44:30.121Z,99.99
2018-07-31T05:45:30.701Z,99.99
2018-07-31T05:46:31.288Z,99.99
2018-07-31T05:47:31.873Z,99.99
2018-07-31T05:48:32.456Z,99.99
2018-07-31T05:49:33.046Z,99.99
2018-07-31T05:50:33.683Z,99.99
2018-07-31T05:51:34.268Z,99.99
2018-07-31T05:56:42.002Z,99.99
2018-07-31T05:57:42.589Z,99.99
2018-07-31T05:58:43.175Z,99.99
2018-07-31T05:59:43.762Z,99.99
2018-07-31T06:00:44.349Z,99.99
2018-07-31T06:01:44.932Z,99.99
2018-07-31T06:02:45.564Z,99.99
2018-07-31T06:03:46.153Z,99.99
2018-07-31T06:04:46.739Z,99.99
2018-07-31T06:05:47.323Z,99.99
2018-07-31T06:06:47.906Z,99.99
2018-07-31T06:07:48.487Z,99.99
2018-07-31T06:08:49.076Z,99.99
2018-07-31T06:09:49.708Z,99.99
2018-07-31T06:12:09.638Z,99.99
2018-07-31T06:13:10.219Z,99.99
2018-07-31T06:14:10.805Z,99.99
2018-07-31T06:15:11.473Z,99.99
2018-07-31T06:16:12.030Z,99.99
2018-07-31T06:17:12.618Z,99.99
2018-07-31T06:18:13.206Z,99.99
2018-07-31T06:19:13.795Z,99.99
2018-07-31T06:20:14.385Z,99.99
2018-07-31T06:21:14.964Z,99.99
2018-07-31T06:22:15.605Z,99.99
2018-07-31T06:23:16.190Z,99.99
2018-07-31T06:24:16.777Z,99.99
2018-07-31T06:25:17.365Z,99.99
2018-07-31T06:31:59.687Z,99.99
2018-07-31T06:33:00.353Z,99.99
2018-07-31T06:34:00.891Z,99.99
2018-07-31T06:35:01.472Z,99.99
2018-07-31T06:36:02.096Z,99.99
2018-07-31T06:37:02.769Z,99.99
2018-07-31T06:38:03.349Z,99.99
2018-07-31T06:39:03.933Z,99.99
2018-07-31T06:40:04.508Z,99.99
2018-07-31T06:41:05.080Z,99.99
2018-07-31T06:42:05.664Z,99.99
2018-07-31T06:43:06.243Z,99.99
2018-07-31T06:44:06.823Z,99.99
2018-07-31T06:45:07.454Z,99.99
2018-07-31T06:46:08.029Z,99.99
2018-07-31T06:47:08.610Z,99.99
2018-07-31T06:48:09.249Z,99.99
2018-07-31T06:49:09.877Z,99.99
2018-07-31T06:50:10.495Z,99.99
2018-07-31T06:51:11.087Z,99.99
2018-07-31T06:52:11.670Z,99.99
2018-07-31T06:53:12.305Z,99.99
2018-07-31T06:54:12.889Z,99.99
2018-07-31T06:55:13.477Z,99.99
2018-07-31T06:56:14.065Z,99.99
2018-07-31T06:57:14.643Z,99.99
2018-07-31T06:58:15.232Z,99.99
2018-07-31T06:59:15.820Z,99.99
2018-07-31T07:00:16.454Z,99.99
2018-07-31T07:01:17.044Z,99.99
2018-07-31T07:02:17.632Z,99.99
2018-07-31T07:03:18.220Z,99.99
2018-07-31T07:04:18.812Z,99.99
2018-07-31T07:05:19.395Z,99.99
2018-07-31T07:06:20.033Z,99.99
2018-07-31T07:07:20.618Z,99.99
2018-07-31T07:08:21.205Z,99.99
2018-07-31T07:09:21.898Z,99.99
2018-07-31T07:10:22.414Z,99.99
2018-07-31T07:11:23.003Z,99.99
2018-07-31T07:12:23.579Z,99.99
2018-07-31T07:13:24.166Z,99.99
2018-07-31T07:14:24.746Z,99.99
2018-07-31T07:15:25.398Z,99.99
2018-07-31T07:16:26.027Z,99.99
2018-07-31T07:17:26.660Z,99.99
2018-07-31T07:18:27.242Z,99.99
2018-07-31T07:19:27.832Z,99.99
2018-07-31T07:20:28.417Z,99.99
2018-07-31T07:21:29.005Z,99.99
2018-07-31T07:22:29.619Z,99.99
2018-07-31T07:23:30.227Z,99.99
2018-07-31T07:24:30.812Z,99.99
2018-07-31T07:25:31.398Z,99.99
2018-07-31T07:26:31.983Z,99.99
2018-07-31T07:27:32.572Z,99.99
2018-07-31T07:28:33.152Z,99.99
2018-07-31T07:29:33.742Z,99.99
2018-07-31T07:30:34.330Z,99.99
2018-07-31T07:31:34.918Z,99.99
2018-07-31T07:32:35.553Z,99.99
2018-07-31T07:33:36.271Z,99.99
2018-07-31T07:34:36.776Z,99.99
2018-07-31T07:35:37.355Z,99.99
2018-07-31T07:36:37.940Z,99.99
2018-07-31T07:37:38.519Z,99.99
2018-07-31T07:38:39.106Z,99.99
2018-07-31T07:39:39.692Z,99.99
2018-07-31T07:40:40.282Z,99.99
2018-07-31T07:41:40.917Z,99.99
2018-07-31T07:42:41.498Z,99.99
2018-07-31T07:43:42.088Z,99.99
2018-07-31T07:44:42.671Z,99.99
2018-07-31T07:45:43.258Z,99.99
2018-07-31T07:46:43.845Z,99.99
2018-07-31T07:47:44.432Z,99.99
2018-07-31T07:48:45.062Z,99.99
2018-07-31T07:49:45.651Z,99.99
2018-07-31T07:50:46.239Z,99.99
2018-07-31T07:51:46.826Z,99.99
2018-07-31T07:52:47.461Z,99.99
2018-07-31T07:53:48.082Z,99.99
2018-07-31T07:54:48.629Z,99.99
2018-07-31T07:55:49.216Z,99.99
2018-07-31T07:56:49.800Z,99.99
2018-07-31T07:57:50.386Z,99.99
2018-07-31T07:58:50.972Z,99.99
2018-07-31T07:59:51.607Z,99.99
2018-07-31T08:00:52.243Z,99.99
2018-07-31T08:01:52.824Z,99.99
2018-07-31T08:02:53.413Z,99.99
2018-07-31T08:03:54.039Z,99.99
2018-07-31T08:04:54.626Z,99.99
2018-07-31T08:05:55.213Z,99.99
2018-07-31T08:06:55.844Z,99.99
2018-07-31T08:07:56.432Z,99.99
2018-07-31T08:08:57.011Z,99.99
2018-07-31T08:09:57.601Z,99.99
2018-07-31T08:10:58.188Z,99.99
2018-07-31T08:11:58.769Z,99.99
2018-07-31T08:12:59.396Z,99.99
2018-07-31T08:13:59.983Z,99.99
2018-07-31T08:15:00.610Z,99.99
2018-07-31T08:16:01.164Z,99.99
2018-07-31T08:17:01.746Z,99.99
2018-07-31T08:18:02.390Z,99.99
2018-07-31T08:19:03.019Z,99.99
2018-07-31T08:20:03.610Z,99.99
2018-07-31T08:21:04.197Z,99.99
2018-07-31T08:22:04.786Z,99.99
2018-07-31T08:23:05.362Z,99.99
2018-07-31T08:24:05.953Z,99.99
2018-07-31T08:25:06.547Z,99.99
2018-07-31T08:26:07.128Z,99.99
2018-07-31T08:27:07.766Z,99.99
2018-07-31T08:28:08.342Z,99.99
2018-07-31T08:29:08.931Z,99.99
2018-07-31T08:30:09.520Z,99.99
2018-07-31T08:31:10.104Z,99.99
2018-07-31T08:32:10.727Z,99.99
2018-07-31T08:33:11.316Z,99.99
2018-07-31T08:34:11.904Z,99.99
2018-07-31T08:35:12.489Z,99.99
2018-07-31T08:36:13.075Z,99.99
2018-07-31T08:37:13.709Z,99.99
2018-07-31T08:38:14.345Z,99.99
2018-07-31T08:39:14.937Z,99.99
2018-07-31T08:40:15.513Z,99.99
2018-07-31T08:41:16.138Z,99.99
2018-07-31T08:42:16.732Z,99.99
2018-07-31T08:43:17.271Z,99.99
2018-07-31T08:44:17.954Z,99.99
2018-07-31T08:45:18.536Z,99.99
2018-07-31T08:46:19.125Z,99.99
2018-07-31T08:47:19.709Z,99.99
2018-07-31T08:48:20.295Z,99.99
2018-07-31T08:49:20.881Z,99.99
2018-07-31T08:50:21.514Z,99.99
2018-07-31T08:51:22.102Z,99.99
2018-07-31T08:52:22.732Z,99.99
2018-07-31T08:53:23.322Z,99.99
2018-07-31T08:54:23.905Z,99.99
2018-07-31T08:55:24.492Z,99.99
2018-07-31T08:56:25.081Z,99.99
2018-07-31T08:57:25.668Z,99.99
2018-07-31T08:58:26.304Z,99.99
2018-07-31T08:59:26.890Z,99.99
2018-07-31T09:00:27.475Z,99.99
2018-07-31T09:01:28.059Z,99.99
2018-07-31T09:02:28.696Z,99.99
2018-07-31T09:03:29.282Z,99.99
2018-07-31T09:04:29.863Z,99.99
2018-07-31T09:05:30.446Z,99.99
2018-07-31T09:06:31.079Z,99.99
2018-07-31T09:07:31.666Z,99.99
2018-07-31T09:08:32.322Z,99.99
2018-07-31T09:09:32.896Z,99.99
2018-07-31T09:10:33.563Z,99.99
2018-07-31T09:11:34.129Z,99.99
2018-07-31T09:12:34.717Z,99.99
2018-07-31T09:13:35.311Z,99.99
2018-07-31T09:14:35.899Z,99.99
2018-07-31T09:15:36.493Z,99.99
2018-07-31T09:16:37.133Z,99.99
2018-07-31T09:17:37.921Z,99.99
2018-07-31T09:18:38.354Z,99.99
2018-07-31T09:19:38.941Z,99.99
2018-07-31T09:20:39.536Z,99.99
2018-07-31T09:21:40.126Z,99.99
2018-07-31T09:22:40.716Z,99.99
2018-07-31T09:23:41.298Z,99.99
2018-07-31T09:24:41.981Z,99.99
2018-07-31T09:25:42.537Z,99.99
2018-07-31T09:26:43.124Z,99.99
2018-07-31T09:27:43.713Z,99.99
2018-07-31T09:28:44.304Z,99.99
2018-07-31T09:29:44.896Z,99.99
2018-07-31T09:30:45.537Z,99.99
2018-07-31T09:31:46.078Z,99.99
2018-07-31T09:32:46.673Z,99.99
2018-07-31T09:33:47.314Z,99.99
2018-07-31T09:34:48.010Z,99.99
2018-07-31T09:35:48.594Z,99.99
2018-07-31T09:36:49.188Z,99.99
2018-07-31T09:37:49.776Z,99.99
2018-07-31T09:38:50.365Z,99.99
2018-07-31T09:39:50.956Z,99.99
2018-07-31T09:40:51.548Z,99.99
2018-07-31T09:41:52.139Z,99.99
2018-07-31T09:42:52.731Z,99.99
2018-07-31T09:43:53.319Z,99.99
2018-07-31T09:44:53.903Z,99.99
2018-07-31T09:45:54.537Z,99.99
2018-07-31T09:46:55.128Z,99.99
2018-07-31T09:47:55.721Z,99.99
2018-07-31T09:48:56.313Z,99.99
2018-07-31T09:49:56.953Z,99.99
2018-07-31T09:50:57.539Z,99.99
2018-07-31T09:51:58.185Z,99.99
2018-07-31T09:52:58.766Z,99.99
2018-07-31T09:53:59.362Z,99.99
2018-07-31T09:54:59.952Z,99.99
2018-07-31T09:56:00.544Z,99.99
2018-07-31T09:57:01.132Z,99.99
2018-07-31T09:58:01.725Z,99.99
2018-07-31T09:59:02.357Z,99.99
2018-07-31T10:00:02.902Z,99.99
2018-07-31T10:01:03.499Z,99.99
2018-07-31T10:02:04.086Z,99.99
2018-07-31T10:03:04.728Z,99.99
2018-07-31T10:04:05.359Z,99.99
2018-07-31T10:05:05.963Z,99.99
2018-07-31T10:06:06.542Z,99.99
2018-07-31T10:07:07.183Z,99.99
2018-07-31T10:08:07.824Z,99.99
2018-07-31T10:09:08.409Z,99.99
2018-07-31T10:10:09.002Z,99.99
2018-07-31T10:11:09.593Z,99.99
2018-07-31T10:12:10.243Z,99.99
2018-07-31T10:13:10.777Z,99.99
2018-07-31T10:14:11.372Z,99.99
2018-07-31T10:15:11.960Z,99.99
2018-07-31T10:16:12.548Z,99.99
2018-07-31T10:17:13.137Z,99.99
2018-07-31T10:18:13.832Z,99.99
2018-07-31T10:19:14.356Z,99.99
2018-07-31T10:20:14.946Z,99.99
2018-07-31T10:21:15.693Z,99.99
2018-07-31T10:22:16.320Z,99.99
2018-07-31T10:23:16.906Z,99.99
2018-07-31T10:24:17.619Z,99.99
2018-07-31T10:25:18.089Z,99.99
2018-07-31T10:26:18.729Z,99.99
2018-07-31T10:27:19.323Z,99.99
2018-07-31T10:28:19.911Z,99.99
2018-07-31T10:29:20.555Z,99.99
2018-07-31T10:30:21.146Z,99.99
2018-07-31T10:31:21.738Z,99.99
2018-07-31T10:32:22.328Z,99.99
2018-07-31T10:33:22.919Z,99.99
2018-07-31T10:34:23.556Z,99.99
2018-07-31T10:35:24.148Z,99.99
2018-07-31T10:36:24.747Z,99.99
2018-07-31T10:37:25.339Z,99.99
2018-07-31T10:38:25.926Z,99.99
2018-07-31T10:39:26.514Z,99.99
2018-07-31T10:40:27.153Z,99.99
2018-07-31T10:41:27.748Z,99.99
2018-07-31T10:42:28.383Z,99.99
2018-07-31T10:43:28.977Z,99.99
2018-07-31T10:44:29.615Z,99.99
2018-07-31T10:45:30.206Z,99.99
2018-07-31T10:46:30.795Z,99.99
2018-07-31T10:47:31.383Z,99.99
2018-07-31T10:48:31.973Z,99.99
2018-07-31T10:49:32.568Z,99.99
2018-07-31T10:50:33.215Z,99.99
2018-07-31T10:51:33.799Z,99.99
2018-07-31T10:52:34.435Z,99.99
2018-07-31T10:53:35.024Z,99.99
2018-07-31T10:54:35.613Z,99.99
2018-07-31T10:55:36.204Z,99.99
2018-07-31T10:56:36.788Z,99.99
2018-07-31T10:57:37.383Z,99.99
2018-07-31T10:58:38.065Z,99.99
2018-07-31T10:59:38.631Z,99.99
2018-07-31T11:00:39.210Z,99.99
2018-07-31T11:01:39.894Z,99.99
2018-07-31T11:02:40.515Z,99.84
2018-07-31T11:03:41.076Z,99.26
2018-07-31T11:04:41.669Z,99.89
2018-07-31T11:05:42.262Z,99.51
2018-07-31T11:06:42.852Z,99.31
2018-07-31T11:07:43.445Z,99.41
2018-07-31T11:08:44.036Z,99.21
2018-07-31T11:09:44.627Z,98.63
2018-07-31T11:10:45.223Z,98.93
2018-07-31T11:11:45.807Z,98.73
2018-07-31T11:12:46.404Z,98.93
2018-07-31T11:13:47.087Z,99.12
2018-07-31T11:14:47.683Z,98.63
2018-07-31T11:15:48.317Z,98.44
2018-07-31T11:16:48.913Z,98.30
2018-07-31T11:17:49.511Z,98.39
2018-07-31T11:18:50.149Z,98.39
2018-07-31T11:19:50.744Z,98.30
2018-07-31T11:20:51.373Z,98.39
2018-07-31T11:21:51.928Z,98.88
2018-07-31T11:22:52.567Z,97.52
2018-07-31T11:23:53.161Z,97.71
2018-07-31T11:24:53.754Z,98.68
2018-07-31T11:25:54.346Z,98.39
2018-07-31T11:26:54.990Z,98.39
2018-07-31T11:27:55.592Z,98.39
2018-07-31T11:28:56.225Z,98.88
2018-07-31T11:29:56.820Z,98.97
2018-07-31T11:30:57.513Z,98.58
2018-07-31T11:31:58.204Z,99.21
2018-07-31T11:34:00.384Z,99.55
2018-07-31T11:36:02.610Z,98.78
2018-07-31T11:37:03.202Z,99.02
2018-07-31T11:38:03.798Z,98.93
2018-07-31T11:39:04.395Z,99.07
2018-07-31T11:40:04.990Z,98.93
2018-07-31T11:41:05.573Z,98.30
2018-07-31T11:42:06.165Z,97.62
2018-07-31T11:43:06.758Z,98.25
2018-07-31T11:44:07.357Z,98.73
2018-07-31T11:45:07.947Z,97.57
2018-07-31T11:46:08.540Z,97.91
2018-07-31T11:47:09.134Z,97.18
2018-07-31T11:48:09.729Z,96.80
2018-07-31T11:49:10.324Z,96.75
2018-07-31T11:50:10.968Z,96.55
2018-07-31T11:51:11.564Z,95.58
2018-07-31T11:52:12.153Z,95.20
2018-07-31T11:53:12.749Z,95.10
2018-07-31T11:54:13.348Z,95.29
2018-07-31T11:55:13.942Z,94.62
2018-07-31T11:56:14.588Z,94.52
2018-07-31T11:57:15.183Z,94.62
2018-07-31T11:58:15.781Z,93.94
2018-07-31T11:59:16.377Z,94.32
2018-07-31T12:00:17.023Z,94.04
2018-07-31T12:01:17.619Z,93.94
2018-07-31T12:02:18.220Z,94.04
2018-07-31T12:03:18.865Z,93.84
2018-07-31T12:04:19.501Z,93.74
2018-07-31T12:05:20.052Z,93.89
2018-07-31T12:06:20.650Z,93.26
2018-07-31T12:07:21.244Z,93.70
2018-07-31T12:08:21.842Z,93.65
2018-07-31T12:09:22.440Z,93.55
2018-07-31T12:10:23.038Z,93.16
2018-07-31T12:11:23.684Z,93.45
2018-07-31T12:12:24.277Z,93.31
2018-07-31T12:13:24.926Z,92.87
2018-07-31T12:14:25.620Z,92.87
2018-07-31T12:15:26.216Z,92.58
2018-07-31T12:16:26.808Z,91.81
2018-07-31T12:17:27.404Z,91.37
2018-07-31T12:18:28.007Z,89.28
2018-07-31T12:19:28.692Z,88.30
2018-07-31T12:20:29.281Z,87.04
2018-07-31T12:21:29.880Z,85.77
2018-07-31T12:22:30.477Z,84.21
2018-07-31T12:23:31.074Z,82.79
2018-07-31T12:24:31.666Z,82.35
2018-07-31T12:25:32.266Z,81.22
2018-07-31T12:26:32.861Z,81.32
2018-07-31T12:27:33.465Z,80.35
2018-07-31T12:28:34.050Z,79.71
2018-07-31T12:29:34.702Z,78.92
2018-07-31T12:30:35.302Z,77.70
2018-07-31T12:31:35.896Z,77.31
2018-07-31T12:32:41.589Z,77.31
2018-07-31T12:33:42.153Z,76.86
2018-07-31T12:34:42.800Z,76.76
2018-07-31T12:35:43.397Z,74.95
2018-07-31T12:36:43.998Z,75.14
2018-07-31T12:37:44.597Z,75.43
2018-07-31T12:38:45.247Z,74.30
2018-07-31T12:39:45.847Z,73.91
2018-07-31T12:41:48.027Z,73.52
2018-07-31T12:42:48.626Z,73.75
2018-07-31T12:43:49.243Z,72.78
2018-07-31T12:44:49.826Z,71.51
2018-07-31T12:45:50.429Z,71.35
2018-07-31T12:46:51.072Z,72.13
2018-07-31T12:47:51.677Z,71.74
2018-07-31T12:48:52.280Z,71.55
2018-07-31T12:49:52.881Z,71.55
2018-07-31T12:50:53.480Z,70.80
2018-07-31T12:51:54.131Z,70.31
2018-07-31T12:52:54.733Z,71.39
2018-07-31T12:53:55.383Z,70.21
2018-07-31T12:56:00.651Z,70.44
2018-07-31T12:57:01.247Z,69.37
2018-07-31T12:58:01.843Z,68.49
2018-07-31T12:59:03.654Z,69.66
2018-07-31T13:00:04.281Z,68.42
2018-07-31T13:01:04.860Z,67.74
2018-07-31T13:02:05.463Z,67.83
2018-07-31T13:03:06.067Z,68.32
2018-07-31T13:04:06.669Z,67.09
2018-07-31T13:05:07.270Z,67.29
2018-07-31T13:06:07.872Z,67.68
2018-07-31T13:07:08.473Z,66.50
2018-07-31T13:08:09.124Z,67.19
2018-07-31T13:09:09.776Z,66.60
2018-07-31T13:10:10.378Z,65.85
2018-07-31T13:11:10.983Z,66.14
2018-07-31T13:12:11.630Z,65.65
2018-07-31T13:13:12.250Z,65.65
2018-07-31T13:14:12.835Z,64.48
2018-07-31T13:15:13.428Z,64.31
2018-07-31T13:16:14.039Z,64.51
2018-07-31T13:17:14.636Z,64.61
2018-07-31T13:18:15.232Z,65.20
2018-07-31T13:19:15.839Z,63.56
2018-07-31T13:20:16.441Z,63.73
2018-07-31T13:21:17.044Z,65.88
2018-07-31T13:22:17.639Z,65.39
2018-07-31T13:23:18.239Z,64.44
2018-07-31T13:24:18.843Z,65.30
2018-07-31T13:25:19.499Z,65.00
2018-07-31T13:26:20.101Z,64.44
2018-07-31T13:27:20.700Z,62.58
2018-07-31T13:28:21.349Z,63.66
2018-07-31T13:29:21.953Z,62.58
2018-07-31T13:30:22.554Z,61.90
2018-07-31T13:31:23.205Z,63.56
2018-07-31T13:32:23.806Z,62.68
2018-07-31T13:33:24.412Z,62.68
2018-07-31T13:34:25.009Z,63.46
2018-07-31T13:35:25.616Z,63.76
2018-07-31T13:36:26.220Z,63.95
2018-07-31T13:37:26.822Z,64.05
2018-07-31T13:38:27.421Z,63.46